Time,TemperatureF,DewpointF,PressureIn,WindDirection,WindDirectionDegrees,WindSpeedMPH,WindSpeedGustMPH,Humidity,HourlyPrecipIn,Conditions,Clouds,dailyrainin,SoftwareType,DateUTC
2013-04-03 00:02:00,30.0,17.0,-100.00,NNW,330,3.0,4.0,58,-99.99,,,-99.99,,2013-04-03 05:02:00,
2013-04-03 00:12:00,29.0,17.0,-100.00,NNW,330,4.0,5.0,60,-99.99,,,-99.99,,2013-04-03 05:12:00,
2013-04-03 00:22:00,29.0,17.0,-100.00,NNW,345,4.0,6.0,60,-99.99,,,-99.99,,2013-04-03 05:22:00,
2013-04-03 00:32:00,29.0,17.0,-100.00,NNW,345,4.0,6.0,60,-99.99,,,-99.99,,2013-04-03 05:32:00,
2013-04-03 00:42:00,30.0,18.0,-100.00,NNW,335,4.0,6.0,60,-99.99,,,-99.99,,2013-04-03 05:42:00,
2013-04-03 00:52:00,29.0,18.0,-100.00,NNW,335,4.0,5.0,61,-99.99,,,-99.99,,2013-04-03 05:52:00,
2013-04-03 01:02:00,29.0,18.0,-100.00,NNW,335,4.0,5.0,61,-99.99,,,-99.99,,2013-04-03 06:02:00,
2013-04-03 01:12:00,29.0,18.0,-100.00,NNW,345,6.0,7.0,61,-99.99,,,-99.99,,2013-04-03 06:12:00,
2013-04-03 01:22:00,29.0,18.0,-100.00,NNW,345,6.0,6.0,61,-99.99,,,-99.99,,2013-04-03 06:22:00,
2013-04-03 01:32:00,29.0,18.0,-100.00,NNW,345,6.0,6.0,61,-99.99,,,-99.99,,2013-04-03 06:32:00,
2013-04-03 01:42:00,29.0,18.0,-100.00,NNW,345,5.0,6.0,61,-99.99,,,-99.99,,2013-04-03 06:42:00,
2013-04-03 01:52:00,29.0,17.0,-100.00,North,350,5.0,6.0,61,-99.99,,,-99.99,,2013-04-03 06:52:00,
2013-04-03 02:02:00,29.0,17.0,-100.00,North,350,5.0,6.0,61,-99.99,,,-99.99,,2013-04-03 07:02:00,
2013-04-03 02:12:00,29.0,17.0,-100.00,North,355,5.0,7.0,62,-99.99,,,-99.99,,2013-04-03 07:12:00,
2013-04-03 02:23:00,28.0,17.0,-100.00,NNW,345,6.0,8.0,63,-99.99,,,-99.99,,2013-04-03 07:23:00,
2013-04-03 02:32:00,28.0,17.0,-100.00,NNW,345,6.0,8.0,63,-99.99,,,-99.99,,2013-04-03 07:32:00,
2013-04-03 02:42:00,28.0,17.0,-100.00,NNW,345,6.0,8.0,63,-99.99,,,-99.99,,2013-04-03 07:42:00,
2013-04-03 02:53:00,28.0,17.0,-100.00,North,355,5.0,7.0,64,-99.99,,,-99.99,,2013-04-03 07:53:00,
2013-04-03 03:03:00,28.0,17.0,-100.00,North,355,5.0,7.0,64,-99.99,,,-99.99,,2013-04-03 08:03:00,
2013-04-03 03:12:00,27.0,17.0,-100.00,North,355,4.0,6.0,65,-99.99,,,-99.99,,2013-04-03 08:12:00,
2013-04-03 03:22:00,27.0,17.0,-100.00,North,0,6.0,8.0,66,-99.99,,,-99.99,,2013-04-03 08:22:00,
2013-04-03 03:32:00,27.0,17.0,-100.00,North,0,6.0,8.0,66,-99.99,,,-99.99,,2013-04-03 08:32:00,
2013-04-03 03:42:00,27.0,17.0,-100.00,North,0,4.0,7.0,66,-99.99,,,-99.99,,2013-04-03 08:42:00,
2013-04-03 03:52:00,27.0,17.0,-100.00,North,0,5.0,8.0,67,-99.99,,,-99.99,,2013-04-03 08:52:00,
2013-04-03 04:02:00,27.0,17.0,-100.00,North,0,5.0,8.0,67,-99.99,,,-99.99,,2013-04-03 09:02:00,
2013-04-03 04:12:00,26.0,17.0,-100.00,North,5,7.0,10.0,68,-99.99,,,-99.99,,2013-04-03 09:12:00,
2013-04-03 04:22:00,26.0,17.0,-100.00,North,5,6.0,9.0,68,-99.99,,,-99.99,,2013-04-03 09:22:00,
2013-04-03 04:33:00,26.0,17.0,-100.00,North,5,6.0,9.0,68,-99.99,,,-99.99,,2013-04-03 09:33:00,
2013-04-03 04:43:00,26.0,17.0,-100.00,North,5,5.0,8.0,69,-99.99,,,-99.99,,2013-04-03 09:43:00,
2013-04-03 04:53:00,25.0,17.0,-100.00,North,0,5.0,6.0,70,-99.99,,,-99.99,,2013-04-03 09:53:00,
2013-04-03 05:03:00,25.0,17.0,-100.00,North,0,5.0,6.0,70,-99.99,,,-99.99,,2013-04-03 10:03:00,
2013-04-03 05:12:00,25.0,17.0,-100.00,North,10,6.0,9.0,72,-99.99,,,-99.99,,2013-04-03 10:12:00,
2013-04-03 05:22:00,26.0,18.0,-100.00,North,5,6.0,9.0,72,-99.99,,,-99.99,,2013-04-03 10:22:00,
2013-04-03 05:33:00,26.0,18.0,-100.00,North,5,6.0,9.0,72,-99.99,,,-99.99,,2013-04-03 10:33:00,
2013-04-03 05:43:00,25.0,18.0,-100.00,North,10,6.0,10.0,72,-99.99,,,-99.99,,2013-04-03 10:43:00,
2013-04-03 05:53:00,25.0,17.0,-100.00,North,5,7.0,10.0,73,-99.99,,,-99.99,,2013-04-03 10:53:00,
2013-04-03 06:02:00,25.0,17.0,-100.00,North,5,7.0,10.0,73,-99.99,,,-99.99,,2013-04-03 11:02:00,
2013-04-03 06:12:00,24.0,17.0,-100.00,North,0,5.0,8.0,73,-99.99,,,-99.99,,2013-04-03 11:12:00,
2013-04-03 06:22:00,24.0,17.0,-100.00,North,10,5.0,8.0,75,-99.99,,,-99.99,,2013-04-03 11:22:00,
2013-04-03 06:32:00,24.0,17.0,-100.00,North,10,5.0,8.0,75,-99.99,,,-99.99,,2013-04-03 11:32:00,
2013-04-03 06:42:00,24.0,17.0,-100.00,NNE,15,6.0,8.0,75,-99.99,,,-99.99,,2013-04-03 11:42:00,
2013-04-03 06:53:00,24.0,17.0,-100.00,North,10,6.0,9.0,76,-99.99,,,-99.99,,2013-04-03 11:53:00,
2013-04-03 07:02:00,24.0,17.0,-100.00,North,10,6.0,9.0,76,-99.99,,,-99.99,,2013-04-03 12:02:00,
2013-04-03 07:13:00,24.0,17.0,-100.00,NNE,15,6.0,8.0,76,-99.99,,,-99.99,,2013-04-03 12:13:00,
2013-04-03 07:22:00,24.0,17.0,-100.00,NNE,20,6.0,7.0,76,-99.99,,,-99.99,,2013-04-03 12:22:00,
2013-04-03 07:32:00,24.0,17.0,-100.00,NNE,20,6.0,7.0,76,-99.99,,,-99.99,,2013-04-03 12:32:00,
2013-04-03 07:42:00,24.0,17.0,-100.00,North,5,4.0,7.0,76,-99.99,,,-99.99,,2013-04-03 12:42:00,
2013-04-03 07:52:00,25.0,18.0,-100.00,North,10,5.0,7.0,76,-99.99,,,-99.99,,2013-04-03 12:52:00,
2013-04-03 08:02:00,25.0,18.0,-100.00,North,10,5.0,7.0,76,-99.99,,,-99.99,,2013-04-03 13:02:00,
2013-04-03 08:12:00,26.0,19.0,-100.00,North,5,4.0,6.0,76,-99.99,,,-99.99,,2013-04-03 13:12:00,
2013-04-03 08:22:00,27.0,20.0,-100.00,NNE,30,5.0,6.0,74,-99.99,,,-99.99,,2013-04-03 13:22:00,
2013-04-03 08:32:00,27.0,20.0,-100.00,NNE,30,5.0,6.0,74,-99.99,,,-99.99,,2013-04-03 13:32:00,
2013-04-03 08:42:00,30.0,21.0,-100.00,NNE,30,3.0,5.0,70,-99.99,,,-99.99,,2013-04-03 13:42:00,
2013-04-03 08:52:00,32.0,21.0,-100.00,ENE,60,2.0,4.0,65,-99.99,,,-99.99,,2013-04-03 13:52:00,
2013-04-03 09:02:00,32.0,21.0,-100.00,ENE,60,2.0,4.0,65,-99.99,,,-99.99,,2013-04-03 14:02:00,
2013-04-03 09:12:00,34.0,21.0,-100.00,ENE,70,4.0,7.0,59,-99.99,,,-99.99,,2013-04-03 14:12:00,
2013-04-03 09:22:00,35.0,21.0,-100.00,ENE,75,6.0,8.0,55,-99.99,,,-99.99,,2013-04-03 14:22:00,
2013-04-03 09:32:00,35.0,21.0,-100.00,ENE,75,6.0,8.0,55,-99.99,,,-99.99,,2013-04-03 14:32:00,
2013-04-03 09:42:00,36.0,20.0,-100.00,ENE,60,7.0,10.0,52,-99.99,,,-99.99,,2013-04-03 14:42:00,
2013-04-03 09:52:00,37.0,20.0,-100.00,ENE,75,7.0,12.0,49,-99.99,,,-99.99,,2013-04-03 14:52:00,
2013-04-03 10:02:00,37.0,20.0,-100.00,ENE,75,7.0,12.0,49,-99.99,,,-99.99,,2013-04-03 15:02:00,
2013-04-03 10:12:00,38.0,20.0,-100.00,ENE,75,6.0,11.0,47,-99.99,,,-99.99,,2013-04-03 15:12:00,
2013-04-03 10:23:00,38.0,18.0,-100.00,East,95,8.0,11.0,44,-99.99,,,-99.99,,2013-04-03 15:23:00,
2013-04-03 10:33:00,38.0,18.0,-100.00,East,95,8.0,11.0,44,-99.99,,,-99.99,,2013-04-03 15:33:00,
2013-04-03 10:42:00,39.0,18.0,-100.00,ENE,70,7.0,9.0,42,-99.99,,,-99.99,,2013-04-03 15:42:00,
2013-04-03 10:53:00,40.0,18.0,-100.00,ESE,110,6.0,11.0,41,-99.99,,,-99.99,,2013-04-03 15:53:00,
2013-04-03 11:03:00,40.0,18.0,-100.00,ESE,110,6.0,11.0,41,-99.99,,,-99.99,,2013-04-03 16:03:00,
2013-04-03 11:12:00,40.0,18.0,-100.00,ESE,120,6.0,9.0,40,-99.99,,,-99.99,,2013-04-03 16:12:00,
2013-04-03 11:24:00,41.0,17.0,-100.00,ESE,110,6.0,10.0,38,-99.99,,,-99.99,,2013-04-03 16:24:00,
2013-04-03 11:32:00,41.0,17.0,-100.00,ESE,110,6.0,10.0,38,-99.99,,,-99.99,,2013-04-03 16:32:00,
2013-04-03 11:43:00,41.0,17.0,-100.00,ESE,120,8.0,11.0,37,-99.99,,,-99.99,,2013-04-03 16:43:00,
2013-04-03 11:53:00,43.0,18.0,-100.00,SE,130,2.0,7.0,37,-99.99,,,-99.99,,2013-04-03 16:53:00,
2013-04-03 12:03:00,43.0,18.0,-100.00,SE,130,2.0,7.0,37,-99.99,,,-99.99,,2013-04-03 17:03:00,
2013-04-03 12:13:00,43.0,18.0,-100.00,ESE,115,1.0,9.0,36,-99.99,,,-99.99,,2013-04-03 17:13:00,
2013-04-03 12:23:00,44.0,18.0,-100.00,ENE,75,1.0,10.0,36,-99.99,,,-99.99,,2013-04-03 17:23:00,
2013-04-03 12:33:00,44.0,18.0,-100.00,ENE,75,1.0,10.0,36,-99.99,,,-99.99,,2013-04-03 17:33:00,
2013-04-03 12:46:00,44.0,18.0,-100.00,ENE,60,4.0,8.0,35,-99.99,,,-99.99,,2013-04-03 17:46:00,
2013-04-03 12:54:00,45.0,18.0,-100.00,ENE,65,4.0,11.0,34,-99.99,,,-99.99,,2013-04-03 17:54:00,
2013-04-03 13:02:00,45.0,18.0,-100.00,ENE,65,4.0,11.0,34,-99.99,,,-99.99,,2013-04-03 18:02:00,
2013-04-03 13:13:00,46.0,19.0,-100.00,ENE,65,8.0,11.0,33,-99.99,,,-99.99,,2013-04-03 18:13:00,
2013-04-03 13:22:00,46.0,19.0,-100.00,ENE,65,7.0,12.0,33,-99.99,,,-99.99,,2013-04-03 18:22:00,
2013-04-03 13:33:00,46.0,19.0,-100.00,ENE,65,7.0,12.0,33,-99.99,,,-99.99,,2013-04-03 18:33:00,
2013-04-03 13:43:00,47.0,19.0,-100.00,East,85,5.0,9.0,33,-99.99,,,-99.99,,2013-04-03 18:43:00,
2013-04-03 13:52:00,46.0,18.0,-100.00,ESE,105,2.0,14.0,32,-99.99,,,-99.99,,2013-04-03 18:52:00,
2013-04-03 14:03:00,46.0,18.0,-100.00,ESE,105,2.0,14.0,32,-99.99,,,-99.99,,2013-04-03 19:03:00,
2013-04-03 14:12:00,48.0,19.0,-100.00,NE,40,4.0,14.0,32,-99.99,,,-99.99,,2013-04-03 19:12:00,
2013-04-03 14:22:00,48.0,19.0,-100.00,NE,55,6.0,11.0,31,-99.99,,,-99.99,,2013-04-03 19:22:00,
2013-04-03 14:32:00,48.0,19.0,-100.00,NE,55,6.0,11.0,31,-99.99,,,-99.99,,2013-04-03 19:32:00,
2013-04-03 14:42:00,49.0,19.0,-100.00,ENE,65,9.0,12.0,31,-99.99,,,-99.99,,2013-04-03 19:42:00,
2013-04-03 14:52:00,48.0,18.0,-100.00,NE,50,7.0,11.0,30,-99.99,,,-99.99,,2013-04-03 19:52:00,
2013-04-03 15:02:00,48.0,18.0,-100.00,NE,50,7.0,11.0,30,-99.99,,,-99.99,,2013-04-03 20:02:00,
2013-04-03 15:12:00,49.0,19.0,-100.00,East,90,6.0,11.0,30,-99.99,,,-99.99,,2013-04-03 20:12:00,
2013-04-03 15:23:00,49.0,19.0,-100.00,SE,140,2.0,11.0,30,-99.99,,,-99.99,,2013-04-03 20:23:00,
2013-04-03 15:32:00,49.0,19.0,-100.00,SE,140,2.0,11.0,30,-99.99,,,-99.99,,2013-04-03 20:32:00,
2013-04-03 15:42:00,50.0,19.0,-100.00,ESE,110,5.0,10.0,29,-99.99,,,-99.99,,2013-04-03 20:42:00,
2013-04-03 15:53:00,51.0,20.0,-100.00,NE,45,4.0,10.0,29,-99.99,,,-99.99,,2013-04-03 20:53:00,
2013-04-03 16:02:00,51.0,20.0,-100.00,NE,45,4.0,10.0,29,-99.99,,,-99.99,,2013-04-03 21:02:00,
2013-04-03 16:12:00,50.0,19.0,-100.00,East,80,6.0,11.0,29,-99.99,,,-99.99,,2013-04-03 21:12:00,
2013-04-03 16:22:00,49.0,18.0,-100.00,ESE,110,8.0,14.0,28,-99.99,,,-99.99,,2013-04-03 21:22:00,
2013-04-03 16:33:00,49.0,18.0,-100.00,ESE,110,8.0,14.0,28,-99.99,,,-99.99,,2013-04-03 21:33:00,
2013-04-03 16:42:00,51.0,19.0,-100.00,ESE,120,6.0,9.0,28,-99.99,,,-99.99,,2013-04-03 21:42:00,
2013-04-03 16:52:00,51.0,19.0,-100.00,ESE,105,3.0,11.0,27,-99.99,,,-99.99,,2013-04-03 21:52:00,
2013-04-03 17:02:00,51.0,19.0,-100.00,ESE,105,3.0,11.0,27,-99.99,,,-99.99,,2013-04-03 22:02:00,
2013-04-03 17:12:00,51.0,19.0,-100.00,ENE,70,7.0,11.0,28,-99.99,,,-99.99,,2013-04-03 22:12:00,
2013-04-03 17:22:00,51.0,19.0,-100.00,ESE,110,5.0,9.0,27,-99.99,,,-99.99,,2013-04-03 22:22:00,
2013-04-03 17:32:00,51.0,19.0,-100.00,ESE,110,5.0,9.0,27,-99.99,,,-99.99,,2013-04-03 22:32:00,
2013-04-03 17:42:00,51.0,19.0,-100.00,East,80,5.0,9.0,28,-99.99,,,-99.99,,2013-04-03 22:42:00,
2013-04-03 17:52:00,52.0,19.0,-100.00,East,80,5.0,9.0,27,-99.99,,,-99.99,,2013-04-03 22:52:00,
2013-04-03 18:02:00,52.0,19.0,-100.00,East,80,5.0,9.0,27,-99.99,,,-99.99,,2013-04-03 23:02:00,
2013-04-03 18:12:00,51.0,18.0,-100.00,East,100,6.0,9.0,27,-99.99,,,-99.99,,2013-04-03 23:12:00,
2013-04-03 18:22:00,50.0,18.0,-100.00,East,95,4.0,9.0,27,-99.99,,,-99.99,,2013-04-03 23:22:00,
2013-04-03 18:32:00,50.0,17.0,-100.00,ESE,110,3.0,9.0,27,-99.99,,,-99.99,,2013-04-03 23:32:00,
2013-04-03 18:42:00,50.0,17.0,-100.00,ESE,110,3.0,9.0,27,-99.99,,,-99.99,,2013-04-03 23:42:00,
2013-04-03 18:54:00,50.0,18.0,-100.00,SE,130,4.0,8.0,27,-99.99,,,-99.99,,2013-04-03 23:54:00,
2013-04-03 19:03:00,50.0,18.0,-100.00,SE,130,4.0,8.0,27,-99.99,,,-99.99,,2013-04-04 00:03:00,
2013-04-03 19:12:00,50.0,18.0,-100.00,SE,130,5.0,8.0,28,-99.99,,,-99.99,,2013-04-04 00:12:00,
2013-04-03 19:22:00,48.0,16.0,-100.00,SE,145,4.0,7.0,28,-99.99,,,-99.99,,2013-04-04 00:22:00,
2013-04-03 19:32:00,48.0,16.0,-100.00,SE,145,4.0,7.0,28,-99.99,,,-99.99,,2013-04-04 00:32:00,
2013-04-03 19:43:00,46.0,16.0,-100.00,SE,140,5.0,6.0,30,-99.99,,,-99.99,,2013-04-04 00:43:00,
2013-04-03 19:52:00,44.0,16.0,-100.00,SE,145,4.0,6.0,31,-99.99,,,-99.99,,2013-04-04 00:52:00,
2013-04-03 20:02:00,44.0,16.0,-100.00,SE,145,4.0,6.0,31,-99.99,,,-99.99,,2013-04-04 01:02:00,
2013-04-03 20:12:00,45.0,16.0,-100.00,SE,130,3.0,5.0,31,-99.99,,,-99.99,,2013-04-04 01:12:00,
2013-04-03 20:22:00,45.0,17.0,-100.00,SE,130,2.0,4.0,31,-99.99,,,-99.99,,2013-04-04 01:22:00,
2013-04-03 20:32:00,45.0,17.0,-100.00,SE,130,2.0,4.0,31,-99.99,,,-99.99,,2013-04-04 01:32:00,
2013-04-03 20:43:00,44.0,16.0,-100.00,ESE,105,3.0,4.0,32,-99.99,,,-99.99,,2013-04-04 01:43:00,
2013-04-03 20:52:00,44.0,16.0,-100.00,ESE,110,4.0,4.0,32,-99.99,,,-99.99,,2013-04-04 01:52:00,
2013-04-03 21:02:00,44.0,16.0,-100.00,ESE,110,4.0,4.0,32,-99.99,,,-99.99,,2013-04-04 02:02:00,
2013-04-03 21:12:00,43.0,15.0,-100.00,East,100,2.0,4.0,32,-99.99,,,-99.99,,2013-04-04 02:12:00,
2013-04-03 21:22:00,43.0,16.0,-100.00,East,100,4.0,4.0,33,-99.99,,,-99.99,,2013-04-04 02:22:00,
2013-04-03 21:32:00,43.0,16.0,-100.00,East,100,4.0,4.0,33,-99.99,,,-99.99,,2013-04-04 02:32:00,
2013-04-03 21:42:00,43.0,16.0,-100.00,East,100,4.0,4.0,33,-99.99,,,-99.99,,2013-04-04 02:42:00,
2013-04-03 22:02:00,42.0,15.0,-100.00,ESE,105,2.0,4.0,33,-99.99,,,-99.99,,2013-04-04 03:02:00,
2013-04-03 22:12:00,42.0,16.0,-100.00,ESE,110,3.0,4.0,34,-99.99,,,-99.99,,2013-04-04 03:12:00,
2013-04-03 22:22:00,42.0,16.0,-100.00,SE,135,4.0,4.0,34,-99.99,,,-99.99,,2013-04-04 03:22:00,
2013-04-03 22:33:00,42.0,16.0,-100.00,SE,135,4.0,4.0,34,-99.99,,,-99.99,,2013-04-04 03:33:00,
2013-04-03 22:53:00,42.0,16.0,-100.00,SE,125,4.0,5.0,35,-99.99,,,-99.99,,2013-04-04 03:53:00,
2013-04-03 23:03:00,42.0,16.0,-100.00,SE,125,4.0,5.0,35,-99.99,,,-99.99,,2013-04-04 04:03:00,
2013-04-03 23:12:00,41.0,16.0,-100.00,SE,125,4.0,5.0,36,-99.99,,,-99.99,,2013-04-04 04:12:00,
2013-04-03 23:23:00,40.0,16.0,-100.00,SE,125,4.0,5.0,37,-99.99,,,-99.99,,2013-04-04 04:23:00,
2013-04-03 23:33:00,40.0,16.0,-100.00,SE,125,4.0,5.0,37,-99.99,,,-99.99,,2013-04-04 04:33:00,
2013-04-03 23:43:00,39.0,17.0,-100.00,ESE,115,4.0,4.0,39,-99.99,,,-99.99,,2013-04-04 04:43:00,
2013-04-03 23:53:00,39.0,16.0,-100.00,ESE,110,4.0,4.0,40,-99.99,,,-99.99,,2013-04-04 04:53:00,